Time;durP1;ratioP1;P1;durP2;ratioP2;P2;SDS_P1;SDS_P2;PMS_P1;PMS_P2;Temp;Humidity;BMP_temperature;BMP_pressure;BME280_temperature;BME280_humidity;BME280_pressure;Samples;Min_cycle;Max_cycle;Signal;HPM_P1;HPM_P2
2022/12/04 00:01:29;;;;;;;;;;;;;;;29.10;38.88;98066.14;610045;232;65101;-67
2022/12/04 00:03:57;;;;;;;;;;;;;;;29.09;39.58;98061.84;609984;232;68840;-66
2022/12/04 00:06:25;;;;;;;;;;;;;;;29.07;38.17;98054.01;610036;232;66530;-66
2022/12/04 00:08:53;;;;;;;;;;;;;;;29.06;39.73;98054.32;610071;232;62914;-66
2022/12/04 00:11:22;;;;;;;;;;;;;;;29.06;39.98;98057.03;610096;232;66193;-66
2022/12/04 00:13:49;;;;;;;;;;;;;;;29.04;38.82;98060.02;610061;232;68624;-66
2022/12/04 00:16:18;;;;;;;;;;;;;;;29.02;39.84;98059.48;610089;232;64998;-66
2022/12/04 00:18:45;;;;;;;;;;;;;;;29.01;39.24;98059.80;610037;232;66320;-66
2022/12/04 00:21:14;;;;;;;;;;;;;;;28.99;39.31;98052.76;610082;232;66342;-66
2022/12/04 00:23:42;;;;;;;;;;;;;;;28.97;39.18;98049.57;610143;232;65310;-66
2022/12/04 00:26:13;;;;;;;;;;;;;;;28.97;38.88;98056.86;610024;232;66413;-66
2022/12/04 00:28:41;;;;;;;;;;;;;;;28.96;39.27;98063.38;610066;232;68607;-67
2022/12/04 00:31:10;;;;;;;;;;;;;;;28.96;39.44;98068.80;610024;232;64967;-66
2022/12/04 00:33:37;;;;;;;;;;;;;;;28.93;40.82;98064.78;610031;232;66346;-66
2022/12/04 00:36:07;;;;;;;;;;;;;;;28.92;39.00;98056.95;610088;232;66363;-66
2022/12/04 00:38:34;;;;;;;;;;;;;;;28.91;39.31;98053.45;610079;232;65059;-66
2022/12/04 00:41:02;;;;;;;;;;;;;;;28.89;38.43;98050.26;610028;232;68769;-66
2022/12/04 00:43:30;;;;;;;;;;;;;;;28.88;40.04;98056.75;609996;232;69072;-66
2022/12/04 00:45:58;;;;;;;;;;;;;;;28.87;40.34;98060.57;610021;232;65117;-66
2022/12/04 00:48:25;;;;;;;;;;;;;;;28.85;40.75;98057.35;610031;232;68785;-70
2022/12/04 00:50:54;;;;;;;;;;;;;;;28.84;40.50;98054.93;610057;232;66660;-70
2022/12/04 00:53:21;;;;;;;;;;;;;;;28.84;39.63;98060.34;610041;232;65022;-70
2022/12/04 00:55:49;;;;;;;;;;;;;;;28.81;40.58;98053.66;610038;232;68828;-66
2022/12/04 00:58:16;;;;;;;;;;;;;;;28.78;41.08;98054.22;609998;232;68770;-66
2022/12/04 01:00:44;;;;;;;;;;;;;;;28.78;39.77;98056.92;610040;232;65202;-66
2022/12/04 01:03:11;;;;;;;;;;;;;;;28.78;40.99;98062.33;610091;232;68500;-66
2022/12/04 01:05:40;;;;;;;;;;;;;;;28.75;39.44;98061.02;610011;232;68689;-66
2022/12/04 01:08:08;;;;;;;;;;;;;;;28.76;40.48;98059.14;610008;232;65004;-66
2022/12/04 01:10:37;;;;;;;;;;;;;;;28.73;39.31;98060.54;610004;232;69013;-66
2022/12/04 01:13:04;;;;;;;;;;;;;;;28.73;41.12;98057.84;610019;232;68699;-66
2022/12/04 01:15:32;;;;;;;;;;;;;;;28.72;39.96;98061.62;610051;232;64865;-66
2022/12/04 01:17:59;;;;;;;;;;;;;;;28.71;39.98;98067.34;610017;232;68769;-66
2022/12/04 01:20:27;;;;;;;;;;;;;;;28.70;39.85;98066.55;610002;232;68717;-66
2022/12/04 01:22:54;;;;;;;;;;;;;;;28.69;39.75;98066.83;610045;232;65058;-66
2022/12/04 01:25:22;;;;;;;;;;;;;;;28.67;40.28;98063.61;609951;232;68785;-66
2022/12/04 01:27:49;;;;;;;;;;;;;;;28.67;40.27;98060.91;610050;232;68842;-66
2022/12/04 01:30:17;;;;;;;;;;;;;;;28.65;39.72;98055.02;610037;232;65199;-66
2022/12/04 01:32:44;;;;;;;;;;;;;;;28.64;40.62;98061.50;609986;232;68800;-66
2022/12/04 01:35:11;;;;;;;;;;;;;;;28.63;40.36;98062.61;610018;232;68778;-66
2022/12/04 01:37:39;;;;;;;;;;;;;;;28.60;42.04;98060.50;609994;232;63083;-66
2022/12/04 01:40:07;;;;;;;;;;;;;;;28.59;41.41;98061.58;610076;232;68794;-66
2022/12/04 01:42:35;;;;;;;;;;;;;;;28.57;39.54;98058.39;610055;232;69304;-66
2022/12/04 01:45:20;;;;;;;;;;;;;;;28.55;40.67;98047.86;610007;232;65145;-66
2022/12/04 01:47:48;;;;;;;;;;;;;;;28.53;39.94;98058.95;610022;232;68820;-65
2022/12/04 01:50:16;;;;;;;;;;;;;;;28.53;39.68;98053.55;610002;232;68518;-65
2022/12/04 01:52:43;;;;;;;;;;;;;;;28.52;39.63;98054.66;610003;232;65119;-65
2022/12/04 01:55:11;;;;;;;;;;;;;;;28.50;41.43;98058.75;610092;232;68854;-65
2022/12/04 01:57:38;;;;;;;;;;;;;;;28.50;41.11;98058.75;609985;232;68831;-65
2022/12/04 02:00:07;;;;;;;;;;;;;;;28.47;40.27;98054.73;610006;232;64923;-65
2022/12/04 02:02:36;;;;;;;;;;;;;;;28.46;40.27;98060.45;610030;232;68895;-65
2022/12/04 02:05:06;;;;;;;;;;;;;;;28.44;40.37;98060.73;609986;232;68638;-65
2022/12/04 02:07:34;;;;;;;;;;;;;;;28.43;39.94;98051.03;610051;232;65055;-65
2022/12/04 02:10:05;;;;;;;;;;;;;;;28.41;40.55;98042.37;610069;232;66601;-65
2022/12/04 02:12:34;;;;;;;;;;;;;;;28.41;41.12;98055.09;610006;232;68669;-65
2022/12/04 02:15:03;;;;;;;;;;;;;;;28.39;40.14;98055.38;609987;232;63030;-65
2022/12/04 02:17:36;;;;;;;;;;;;;;;28.38;41.33;98053.78;609819;232;66333;-65
2022/12/04 02:20:10;;;;;;;;;;;;;;;28.36;40.73;98055.97;609999;232;66593;-66
2022/12/04 02:22:39;;;;;;;;;;;;;;;28.34;41.16;98052.75;610056;232;64982;-66
2022/12/04 02:25:24;;;;;;;;;;;;;;;28.34;40.37;98048.14;609717;232;69072;-71
2022/12/04 02:28:00;;;;;;;;;;;;;;;28.33;40.91;98051.16;609992;232;66620;-70
2022/12/04 02:30:29;;;;;;;;;;;;;;;28.32;42.84;98052.27;609841;232;65089;-70
2022/12/04 02:32:58;;;;;;;;;;;;;;;28.29;41.12;98044.72;610012;232;66719;-70
2022/12/04 02:35:30;;;;;;;;;;;;;;;28.27;39.96;98042.33;610018;232;66537;-69
2022/12/04 02:38:02;;;;;;;;;;;;;;;28.27;40.88;98045.03;610042;232;65077;-69
2022/12/04 02:40:31;;;;;;;;;;;;;;;28.24;40.28;98048.32;609064;232;68850;-70
2022/12/04 02:43:03;;;;;;;;;;;;;;;28.25;40.59;98059.93;609944;232;68873;-70
2022/12/04 02:45:32;;;;;;;;;;;;;;;28.22;40.60;98050.51;609832;232;65040;-70
2022/12/04 02:48:01;;;;;;;;;;;;;;;28.22;40.90;98049.70;609986;232;69430;-70
2022/12/04 02:50:30;;;;;;;;;;;;;;;28.20;40.62;98049.19;610014;232;68678;-70
2022/12/04 02:52:59;;;;;;;;;;;;;;;28.19;42.24;98048.39;610025;232;63840;-70
2022/12/04 02:55:30;;;;;;;;;;;;;;;28.18;40.70;98054.08;609902;232;68830;-70
2022/12/04 02:57:59;;;;;;;;;;;;;;;28.17;41.28;98047.08;609961;232;68808;-70
2022/12/04 03:00:28;;;;;;;;;;;;;;;28.15;41.83;98043.86;610032;232;65727;-70
2022/12/04 03:02:57;;;;;;;;;;;;;;;28.14;40.75;98044.97;610053;232;68773;-70
2022/12/04 03:05:30;;;;;;;;;;;;;;;28.13;41.73;98043.34;610105;232;68428;-70
2022/12/04 03:07:59;;;;;;;;;;;;;;;28.11;40.78;98046.36;608147;232;65242;-70
2022/12/04 03:10:28;;;;;;;;;;;;;;;28.09;40.45;98043.93;610046;232;68789;-70
2022/12/04 03:12:57;;;;;;;;;;;;;;;28.08;41.41;98049.65;609790;232;69223;-70
2022/12/04 03:15:42;;;;;;;;;;;;;;;28.06;42.47;98047.22;610046;232;64924;-70
2022/12/04 03:18:18;;;;;;;;;;;;;;;28.05;40.74;98040.22;610040;232;69084;-70
2022/12/04 03:20:47;;;;;;;;;;;;;;;28.04;41.41;98035.09;610086;232;69474;-70
2022/12/04 03:23:16;;;;;;;;;;;;;;;28.02;41.49;98040.81;610085;232;63002;-70
2022/12/04 03:25:45;;;;;;;;;;;;;;;28.01;40.42;98046.50;609985;232;68856;-71
2022/12/04 03:28:14;;;;;;;;;;;;;;;28.00;41.03;98037.59;609576;232;68866;-71
2022/12/04 03:30:43;;;;;;;;;;;;;;;27.99;41.48;98030.59;609814;232;65287;-70
2022/12/04 03:33:18;;;;;;;;;;;;;;;27.98;41.29;98036.27;609854;232;66410;-65
2022/12/04 03:35:50;;;;;;;;;;;;;;;27.96;42.15;98035.76;610087;232;68702;-66
2022/12/04 03:38:19;;;;;;;;;;;;;;;27.94;42.10;98038.77;609006;232;65228;-65
2022/12/04 03:41:02;;;;;;;;;;;;;;;27.92;44.01;98032.84;610115;230;49435;-65
2022/12/04 03:43:34;;;;;;;;;;;;;;;27.91;42.42;98030.42;610046;232;68655;-65
2022/12/04 03:46:06;;;;;;;;;;;;;;;27.90;42.13;98037.73;609923;232;65121;-65
2022/12/04 03:48:38;;;;;;;;;;;;;;;27.87;41.62;98039.11;610024;232;66595;-66
2022/12/04 03:51:10;;;;;;;;;;;;;;;27.87;43.74;98043.72;610011;232;66659;-65
2022/12/04 03:53:42;;;;;;;;;;;;;;;27.86;44.01;98044.83;609852;232;63088;-66
2022/12/04 03:56:11;;;;;;;;;;;;;;;27.84;42.10;98049.70;609688;232;68872;-65
2022/12/04 03:58:40;;;;;;;;;;;;;;;27.82;41.91;98044.58;610041;232;66683;-65
2022/12/04 04:01:09;;;;;;;;;;;;;;;27.82;42.43;98051.89;610042;232;62962;-65
2022/12/04 04:03:38;;;;;;;;;;;;;;;27.81;43.43;98042.19;609997;232;66743;-65
2022/12/04 04:06:10;;;;;;;;;;;;;;;27.80;43.80;98043.27;610090;232;66584;-65
2022/12/04 04:08:39;;;;;;;;;;;;;;;27.78;42.57;98045.45;609678;232;65124;-65
2022/12/04 04:11:20;;;;;;;;;;;;;;;27.77;43.09;98047.31;610039;232;66231;-65
2022/12/04 04:25:04;;;;;;;;;;;;;;;27.68;43.58;98046.38;609520;232;65220;-66
2022/12/04 04:27:32;;;;;;;;;;;;;;;27.66;44.14;98043.98;608130;233;68841;-66
2022/12/04 04:29:59;;;;;;;;;;;;;;;27.65;43.73;98042.35;608046;233;68556;-66
2022/12/04 04:32:37;;;;;;;;;;;;;;;27.64;43.03;98039.95;608061;233;65307;-66
2022/12/04 04:35:06;;;;;;;;;;;;;;;27.62;44.02;98042.94;607957;233;66480;-66
2022/12/04 04:37:38;;;;;;;;;;;;;;;27.61;43.93;98045.91;608054;233;66190;-66
2022/12/04 04:40:07;;;;;;;;;;;;;;;27.58;44.53;98047.32;607634;233;64873;-64
2022/12/04 04:42:36;;;;;;;;;;;;;;;27.57;42.62;98045.70;607157;233;68582;-65
2022/12/04 04:45:05;;;;;;;;;;;;;;;27.58;45.09;98047.32;607901;233;68721;-65
2022/12/04 04:47:40;;;;;;;;;;;;;;;27.55;44.19;98042.47;608030;233;65619;-64
2022/12/04 04:50:09;;;;;;;;;;;;;;;27.55;44.48;98050.57;608002;233;66341;-64
2022/12/04 04:52:37;;;;;;;;;;;;;;;27.54;43.86;98042.78;608035;233;66674;-65
2022/12/04 04:55:06;;;;;;;;;;;;;;;27.52;45.35;98051.16;608053;233;65076;-64
2022/12/04 04:57:37;;;;;;;;;;;;;;;27.51;45.01;98048.77;608035;233;69194;-64
2022/12/04 05:00:14;;;;;;;;;;;;;;;27.49;43.44;98045.54;608057;233;48320;-64
2022/12/04 05:02:44;;;;;;;;;;;;;;;27.47;43.72;98048.52;607901;233;63062;-65
2022/12/04 05:05:12;;;;;;;;;;;;;;;27.47;42.62;98050.41;608025;233;68834;-65
2022/12/04 05:07:41;;;;;;;;;;;;;;;27.45;42.85;98053.42;608046;233;68641;-65
2022/12/04 05:10:09;;;;;;;;;;;;;;;27.44;45.61;98057.98;608070;233;63063;-65
2022/12/04 05:12:37;;;;;;;;;;;;;;;27.43;44.54;98059.09;608035;233;68820;-65
2022/12/04 05:15:05;;;;;;;;;;;;;;;27.41;44.35;98050.47;608014;233;68645;-65
2022/12/04 05:17:34;;;;;;;;;;;;;;;27.41;44.72;98052.38;608056;233;65057;-65
2022/12/04 05:20:03;;;;;;;;;;;;;;;27.40;44.79;98053.48;608005;233;68818;-65
2022/12/04 05:22:32;;;;;;;;;;;;;;;27.37;43.99;98057.55;608080;233;66672;-65
2022/12/04 05:25:00;;;;;;;;;;;;;;;27.37;46.18;98056.75;608460;232;64931;-65
2022/12/04 05:27:28;;;;;;;;;;;;;;;27.36;45.62;98049.73;610013;232;68983;-65
2022/12/04 05:29:57;;;;;;;;;;;;;;;27.35;45.53;98053.53;610002;232;68649;-65
2022/12/04 05:32:25;;;;;;;;;;;;;;;27.33;44.36;98053.80;610019;232;63892;-65
2022/12/04 05:34:54;;;;;;;;;;;;;;;27.32;43.08;98054.91;610002;232;66498;-65
2022/12/04 05:37:22;;;;;;;;;;;;;;;27.31;45.39;98050.61;610053;232;68487;-65
2022/12/04 05:39:49;;;;;;;;;;;;;;;27.30;45.25;98053.59;610008;232;65037;-65
2022/12/04 05:42:17;;;;;;;;;;;;;;;27.28;45.11;98053.06;610019;232;66681;-65
2022/12/04 05:44:44;;;;;;;;;;;;;;;27.26;43.07;98056.06;602981;232;66995;-65
2022/12/04 05:47:12;;;;;;;;;;;;;;;27.26;45.91;98055.27;610075;232;62763;-65
2022/12/04 05:49:39;;;;;;;;;;;;;;;27.24;45.10;98069.03;610001;232;66631;-70
2022/12/04 05:52:07;;;;;;;;;;;;;;;27.23;45.12;98068.23;610008;232;66774;-70
2022/12/04 05:54:34;;;;;;;;;;;;;;;27.22;44.38;98079.30;610039;232;62713;-70
2022/12/04 05:57:02;;;;;;;;;;;;;;;27.21;46.01;98059.61;610007;232;66682;-71
2022/12/04 05:59:29;;;;;;;;;;;;;;;27.19;44.73;98066.38;610017;232;66570;-71
2022/12/04 06:01:57;;;;;;;;;;;;;;;27.17;45.11;98065.86;610100;232;63116;-71
2022/12/04 06:04:24;;;;;;;;;;;;;;;27.16;45.33;98073.16;609978;232;66362;-70
2022/12/04 06:06:52;;;;;;;;;;;;;;;27.15;44.88;98073.43;610024;232;66570;-70
2022/12/04 06:09:20;;;;;;;;;;;;;;;27.13;44.88;98068.30;610004;232;63023;-70
2022/12/04 06:11:48;;;;;;;;;;;;;;;27.12;46.32;98074.80;609970;232;66693;-70
2022/12/04 06:14:15;;;;;;;;;;;;;;;27.11;44.41;98066.98;610064;232;66565;-70
2022/12/04 06:16:44;;;;;;;;;;;;;;;27.09;44.92;98067.28;609933;232;62921;-70
2022/12/04 06:19:13;;;;;;;;;;;;;;;27.09;46.15;98069.16;609992;232;66826;-70
2022/12/04 06:21:42;;;;;;;;;;;;;;;27.08;45.88;98071.05;609844;232;66434;-65
2022/12/04 06:24:11;;;;;;;;;;;;;;;27.07;46.13;98074.84;609997;232;62974;-65
2022/12/04 06:26:38;;;;;;;;;;;;;;;27.07;46.32;98074.05;608190;232;66475;-65
2022/12/04 06:29:05;;;;;;;;;;;;;;;27.06;46.70;98070.52;607983;233;68748;-65
2022/12/04 06:31:34;;;;;;;;;;;;;;;27.05;46.22;98077.02;607944;233;65051;-71
2022/12/04 06:34:02;;;;;;;;;;;;;;;27.05;45.64;98087.02;608051;233;68823;-71
2022/12/04 06:36:29;;;;;;;;;;;;;;;27.03;44.99;98086.48;608046;233;68648;-71
2022/12/04 06:38:57;;;;;;;;;;;;;;;27.02;45.53;98091.09;608074;231;63071;-71
2022/12/04 06:41:26;;;;;;;;;;;;;;;27.00;46.46;98085.16;595198;233;68212;-71
2022/12/04 06:43:54;;;;;;;;;;;;;;;27.00;46.00;98090.55;594876;233;67996;-71
2022/12/04 06:46:23;;;;;;;;;;;;;;;26.98;44.21;98096.25;608050;233;65071;-71
2022/12/04 06:48:51;;;;;;;;;;;;;;;26.98;47.93;98103.52;607990;233;68872;-71
2022/12/04 06:51:20;;;;;;;;;;;;;;;26.98;46.87;98098.13;608068;233;68446;-71
2022/12/04 06:53:47;;;;;;;;;;;;;;;26.95;45.80;98098.69;608052;233;62960;-71
2022/12/04 06:56:16;;;;;;;;;;;;;;;26.95;47.21;98104.89;608078;233;68839;-71
2022/12/04 06:58:49;;;;;;;;;;;;;;;26.94;46.11;98105.19;607990;233;67958;-71
2022/12/04 07:01:18;;;;;;;;;;;;;;;26.93;46.02;98098.99;607906;233;63032;-71
2022/12/04 07:03:45;;;;;;;;;;;;;;;26.92;46.69;98102.77;608010;233;66592;-71
2022/12/04 07:06:18;;;;;;;;;;;;;;;26.92;45.96;98104.66;608099;233;66560;-71
2022/12/04 07:08:46;;;;;;;;;;;;;;;26.90;46.13;98102.27;606418;233;65064;-71
2022/12/04 07:11:13;;;;;;;;;;;;;;;26.90;47.42;98113.05;607908;233;68854;-71
2022/12/04 07:13:41;;;;;;;;;;;;;;;26.88;46.55;98107.12;607956;233;68688;-71
2022/12/04 07:16:10;;;;;;;;;;;;;;;26.87;46.08;98108.20;607894;233;65119;-71
2022/12/04 07:18:38;;;;;;;;;;;;;;;26.88;46.17;98106.33;608043;233;68601;-71
2022/12/04 07:21:09;;;;;;;;;;;;;;;26.86;47.22;98101.20;607956;233;68715;-71
2022/12/04 07:23:38;;;;;;;;;;;;;;;26.85;46.16;98105.00;607997;233;62898;-71
2022/12/04 07:26:10;;;;;;;;;;;;;;;26.84;46.28;98102.57;609373;232;66910;-69
2022/12/04 07:28:38;;;;;;;;;;;;;;;26.83;46.43;98103.67;610017;232;68720;-70
2022/12/04 07:31:07;;;;;;;;;;;;;;;26.82;46.82;98099.34;609982;232;65102;-70
2022/12/04 07:33:36;;;;;;;;;;;;;;;26.82;46.69;98104.73;610023;232;66488;-70
2022/12/04 07:36:04;;;;;;;;;;;;;;;26.81;46.86;98093.16;610004;232;68699;-70
2022/12/04 07:38:34;;;;;;;;;;;;;;;26.81;48.07;98098.55;610001;232;65074;-70
2022/12/04 07:41:05;;;;;;;;;;;;;;;26.81;46.87;98097.75;609990;232;68843;-70
2022/12/04 07:43:33;;;;;;;;;;;;;;;26.79;46.53;98103.41;609778;232;68731;-71
2022/12/04 07:46:02;;;;;;;;;;;;;;;26.79;47.15;98101.55;609301;232;65123;-71
2022/12/04 07:48:29;;;;;;;;;;;;;;;26.78;46.89;98094.52;608982;232;69647;-71
2022/12/04 07:51:04;;;;;;;;;;;;;;;26.77;46.41;98092.92;609936;232;68696;-71
2022/12/04 07:53:31;;;;;;;;;;;;;;;26.77;46.43;98095.63;609977;232;65021;-71
2022/12/04 07:55:59;;;;;;;;;;;;;;;26.77;45.21;98103.71;609959;232;66490;-71
2022/12/04 07:58:27;;;;;;;;;;;;;;;26.77;47.14;98095.63;609959;232;68557;-71
2022/12/04 08:00:54;;;;;;;;;;;;;;;26.77;46.29;98103.71;610011;232;64960;-71
2022/12/04 08:03:22;;;;;;;;;;;;;;;26.77;47.09;98103.71;609947;232;68803;-71
2022/12/04 08:05:49;;;;;;;;;;;;;;;26.76;47.06;98099.41;610034;232;68518;-71
2022/12/04 08:08:16;;;;;;;;;;;;;;;26.77;47.29;98095.63;610013;232;64977;-71
2022/12/04 08:10:44;;;;;;;;;;;;;;;26.77;45.40;98092.92;610008;232;68816;-71
2022/12/04 08:13:11;;;;;;;;;;;;;;;26.79;44.93;98093.45;610033;232;69077;-71
2022/12/04 08:15:39;;;;;;;;;;;;;;;26.79;46.30;98088.06;609984;232;65059;-71
2022/12/04 08:18:06;;;;;;;;;;;;;;;26.81;46.82;98089.66;610018;232;68891;-71
2022/12/04 08:20:34;;;;;;;;;;;;;;;26.81;47.66;98095.05;610016;232;68694;-71
2022/12/04 08:23:01;;;;;;;;;;;;;;;26.81;46.95;98081.56;610038;232;65041;-71
2022/12/04 08:25:29;;;;;;;;;;;;;;;26.81;45.35;98085.06;610029;232;66722;-71
2022/12/04 08:27:58;;;;;;;;;;;;;;;26.82;44.51;98088.56;610014;232;68314;-71
2022/12/04 08:30:26;;;;;;;;;;;;;;;26.82;44.96;98086.69;610044;232;62992;-71
2022/12/04 08:32:57;;;;;;;;;;;;;;;26.83;44.52;98084.80;610084;232;49039;-71
2022/12/04 08:35:27;;;;;;;;;;;;;;;26.83;47.25;98085.59;610015;230;68524;-71
2022/12/04 08:37:55;;;;;;;;;;;;;;;26.83;45.10;98085.59;609993;232;65001;-71
2022/12/04 08:40:25;;;;;;;;;;;;;;;26.85;44.22;98075.33;610091;232;68623;-71
2022/12/04 08:43:01;;;;;;;;;;;;;;;26.85;44.33;98072.64;609942;232;49567;-71
2022/12/04 08:45:32;;;;;;;;;;;;;;;26.85;43.99;98069.14;609643;232;62768;-70
2022/12/04 08:48:01;;;;;;;;;;;;;;;26.87;44.50;98073.13;610063;232;66240;-70
2022/12/04 08:50:30;;;;;;;;;;;;;;;26.88;43.34;98072.06;609998;232;68462;-69
2022/12/04 08:53:02;;;;;;;;;;;;;;;26.89;45.18;98070.16;603338;232;46316;-69
2022/12/04 08:55:35;;;;;;;;;;;;;;;26.90;43.66;98063.67;610081;232;51337;-70
2022/12/04 08:58:03;;;;;;;;;;;;;;;26.90;42.94;98063.67;609986;232;68528;-70
2022/12/04 09:00:32;;;;;;;;;;;;;;;26.91;44.43;98065.30;603055;232;64594;-70
2022/12/04 09:03:07;;;;;;;;;;;;;;;26.91;43.77;98068.00;610069;230;50490;-70
2022/12/04 09:05:37;;;;;;;;;;;;;;;26.92;44.63;98064.20;603160;232;68806;-70
2022/12/04 09:08:06;;;;;;;;;;;;;;;26.92;44.05;98056.11;610069;232;64916;-70
2022/12/04 09:10:41;;;;;;;;;;;;;;;26.93;44.01;98053.14;610056;232;68823;-70
2022/12/04 09:13:09;;;;;;;;;;;;;;;26.93;45.56;98055.84;609976;232;68750;-70
2022/12/04 09:15:40;;;;;;;;;;;;;;;26.95;43.80;98055.53;610018;232;64906;-70
2022/12/04 09:18:10;;;;;;;;;;;;;;;26.96;43.14;98040.98;609289;232;49925;-70
2022/12/04 09:20:38;;;;;;;;;;;;;;;26.96;43.69;98044.47;610045;232;68493;-70
2022/12/04 09:23:11;;;;;;;;;;;;;;;26.97;44.05;98037.18;610118;232;46348;-70
2022/12/04 09:25:42;;;;;;;;;;;;;;;26.96;42.79;98040.98;608871;232;68638;-70
2022/12/04 09:28:11;;;;;;;;;;;;;;;26.98;44.87;98042.30;608004;233;47682;-70
2022/12/04 09:30:39;;;;;;;;;;;;;;;26.98;43.36;98041.47;600624;233;62765;-70
2022/12/04 09:33:08;;;;;;;;;;;;;;;26.98;43.40;98034.20;607943;233;48698;-69
2022/12/04 09:35:39;;;;;;;;;;;;;;;27.00;42.49;98042.00;608033;233;68556;-69
2022/12/04 09:38:08;;;;;;;;;;;;;;;27.00;43.02;98036.60;608052;233;67108;-70
2022/12/04 09:40:41;;;;;;;;;;;;;;;27.00;43.62;98023.11;607906;233;68737;-70
2022/12/04 09:43:29;;;;;;;;;;;;;;;27.02;44.70;98034.43;607798;233;46858;-70
2022/12/04 09:45:58;;;;;;;;;;;;;;;27.02;43.38;98029.03;608052;233;65110;-70
2022/12/04 09:48:28;;;;;;;;;;;;;;;27.02;43.47;98023.64;607529;233;69083;-70
2022/12/04 09:50:56;;;;;;;;;;;;;;;27.02;43.76;98015.55;607064;233;66382;-70
2022/12/04 09:53:25;;;;;;;;;;;;;;;27.04;43.33;98015.24;607993;233;63021;-70
2022/12/04 09:56:00;;;;;;;;;;;;;;;27.03;43.55;98011.75;607912;233;66748;-70
2022/12/04 09:58:31;;;;;;;;;;;;;;;27.03;43.15;98011.75;608064;233;66236;-70
2022/12/04 10:00:59;;;;;;;;;;;;;;;27.04;42.94;98012.55;608061;233;65058;-69
2022/12/04 10:03:28;;;;;;;;;;;;;;;27.05;43.01;98006.88;608033;233;66518;-70
2022/12/04 10:06:00;;;;;;;;;;;;;;;27.06;43.74;98004.98;608066;233;68393;-70
2022/12/04 10:08:29;;;;;;;;;;;;;;;27.06;43.22;98010.38;608099;233;65168;-70
2022/12/04 10:11:03;;;;;;;;;;;;;;;27.06;43.28;98002.28;608057;233;68486;-70
2022/12/04 10:13:43;;;;;;;;;;;;;;;27.07;42.76;98003.91;607846;233;66037;-70
2022/12/04 10:16:20;;;;;;;;;;;;;;;27.06;42.01;97997.68;607883;233;64908;-70
2022/12/04 10:18:52;;;;;;;;;;;;;;;27.06;43.69;97989.59;605458;233;68453;-69
2022/12/04 10:21:27;;;;;;;;;;;;;;;27.06;43.89;97976.09;607693;233;68501;-69
2022/12/04 10:23:56;;;;;;;;;;;;;;;27.07;43.06;97979.63;608002;233;65042;-69
2022/12/04 10:26:25;;;;;;;;;;;;;;;27.07;43.50;97975.03;608043;233;66488;-69
2022/12/04 10:29:11;;;;;;;;;;;;;;;27.06;43.51;97976.09;608031;233;68460;-69
2022/12/04 10:31:40;;;;;;;;;;;;;;;27.08;42.59;97973.92;607988;233;67564;-70
2022/12/04 10:34:15;;;;;;;;;;;;;;;27.08;43.34;97968.53;608062;233;68484;-70
2022/12/04 10:36:43;;;;;;;;;;;;;;;27.08;43.54;97968.53;608058;233;65616;-70
2022/12/04 10:39:13;;;;;;;;;;;;;;;27.09;43.56;97966.63;608069;233;62996;-70
2022/12/04 10:41:52;;;;;;;;;;;;;;;27.08;43.80;97968.53;608025;233;68511;-70
2022/12/04 10:44:20;;;;;;;;;;;;;;;27.09;42.32;97955.84;608031;233;68567;-70
2022/12/04 10:46:48;;;;;;;;;;;;;;;27.10;42.27;97960.16;608029;233;65015;-70
2022/12/04 10:49:26;;;;;;;;;;;;;;;27.10;43.44;97966.35;608035;233;66110;-71
2022/12/04 10:51:55;;;;;;;;;;;;;;;27.10;43.65;97943.97;608011;233;66371;-69
2022/12/04 10:54:24;;;;;;;;;;;;;;;27.11;43.94;97940.97;608082;233;65063;-69
2022/12/04 10:56:55;;;;;;;;;;;;;;;27.12;41.91;97952.56;607968;233;68614;-69
2022/12/04 10:59:23;;;;;;;;;;;;;;;27.13;44.21;97948.78;607775;233;68409;-69
2022/12/04 11:01:52;;;;;;;;;;;;;;;27.14;43.68;97934.19;608035;233;65064;-69
2022/12/04 11:04:21;;;;;;;;;;;;;;;27.15;44.10;97935.81;608021;233;68285;-69
2022/12/04 11:06:49;;;;;;;;;;;;;;;27.15;43.27;97942.02;608033;233;68352;-70
2022/12/04 11:09:21;;;;;;;;;;;;;;;27.17;42.92;97950.66;607882;233;63068;-72
2022/12/04 11:11:49;;;;;;;;;;;;;;;27.20;36.24;97933.89;608030;233;68826;-69
2022/12/04 11:14:17;;;;;;;;;;;;;;;27.26;43.01;97934.63;608010;233;68459;-69
2022/12/04 11:16:48;;;;;;;;;;;;;;;27.25;43.16;97937.59;608036;233;63909;-69
2022/12/04 11:19:19;;;;;;;;;;;;;;;27.26;41.45;97931.12;608048;233;68593;-69
2022/12/04 11:21:47;;;;;;;;;;;;;;;27.27;41.88;97924.62;608064;233;68543;-69
2022/12/04 11:24:22;;;;;;;;;;;;;;;27.28;42.17;97928.92;608074;233;62978;-69
2022/12/04 11:26:51;;;;;;;;;;;;;;;27.29;42.16;97922.45;608049;233;66436;-69
2022/12/04 11:29:20;;;;;;;;;;;;;;;27.31;43.57;97926.46;607944;233;66329;-69
2022/12/04 11:31:53;;;;;;;;;;;;;;;27.33;41.95;97926.16;608045;233;65043;-69
2022/12/04 11:34:22;;;;;;;;;;;;;;;27.34;42.77;97925.08;608014;233;66415;-69
2022/12/04 11:36:51;;;;;;;;;;;;;;;27.36;41.86;97920.17;608050;233;66289;-69
2022/12/04 11:39:20;;;;;;;;;;;;;;;27.37;42.74;97925.30;608069;233;65114;-69
2022/12/04 11:41:49;;;;;;;;;;;;;;;27.39;42.67;97916.89;607788;233;66354;-70
2022/12/04 11:44:21;;;;;;;;;;;;;;;27.40;42.00;97923.91;607503;233;66367;-70
2022/12/04 11:46:53;;;;;;;;;;;;;;;27.42;42.80;97913.63;608055;233;63160;-70
2022/12/04 11:49:25;;;;;;;;;;;;;;;27.44;43.06;97925.72;608070;233;68530;-70
2022/12/04 11:51:54;;;;;;;;;;;;;;;27.47;41.56;97923.53;608025;233;66169;-70
2022/12/04 11:54:38;;;;;;;;;;;;;;;27.48;42.84;97917.86;607997;233;65069;-69
2022/12/04 11:57:25;;;;;;;;;;;;;;;27.50;43.78;97910.27;607710;233;68525;-69
2022/12/04 12:00:13;;;;;;;;;;;;;;;27.52;42.18;97910.77;607844;233;68896;-69
2022/12/04 12:02:45;;;;;;;;;;;;;;;27.54;40.75;97894.28;608004;233;65345;-69
2022/12/04 12:05:17;;;;;;;;;;;;;;;27.57;43.76;97899.09;607883;233;68616;-69
2022/12/04 12:07:55;;;;;;;;;;;;;;;27.58;43.27;97903.39;608025;233;66441;-69
2022/12/04 12:10:24;;;;;;;;;;;;;;;27.60;42.92;97899.30;607877;233;62934;-69
2022/12/04 12:12:56;;;;;;;;;;;;;;;27.61;41.68;97900.09;607878;233;66301;-65
2022/12/04 12:15:44;;;;;;;;;;;;;;;27.63;43.63;97898.71;608029;233;68543;-65
2022/12/04 12:18:29;;;;;;;;;;;;;;;27.64;43.30;97891.44;608055;233;65279;-65
2022/12/04 12:21:01;;;;;;;;;;;;;;;27.67;41.98;97896.25;608044;233;68298;-65
2022/12/04 12:23:31;;;;;;;;;;;;;;;27.69;41.42;97896.73;607715;233;68490;-65
2022/12/04 12:26:00;;;;;;;;;;;;;;;27.71;43.05;97899.16;607838;232;65215;-65
2022/12/04 12:28:46;;;;;;;;;;;;;;;27.73;42.05;97897.77;610023;232;68767;-65
2022/12/04 12:31:17;;;;;;;;;;;;;;;27.75;42.81;97900.19;610085;232;66384;-68
2022/12/04 12:33:47;;;;;;;;;;;;;;;27.76;42.40;97893.68;609488;232;63061;-68
2022/12/04 12:36:15;;;;;;;;;;;;;;;27.78;40.03;97902.30;609029;232;66304;-68
2022/12/04 12:38:47;;;;;;;;;;;;;;;27.81;42.76;97896.33;603164;232;66504;-68
2022/12/04 12:41:18;;;;;;;;;;;;;;;27.82;43.43;97903.33;609957;232;46184;-68
2022/12/04 12:43:47;;;;;;;;;;;;;;;27.84;43.33;97903.84;609718;232;68350;-68
2022/12/04 12:46:19;;;;;;;;;;;;;;;27.84;40.60;97899.23;608994;232;68185;-68
2022/12/04 12:49:06;;;;;;;;;;;;;;;27.87;41.87;97903.25;609962;232;65006;-68
2022/12/04 12:51:38;;;;;;;;;;;;;;;27.89;41.94;97896.45;610041;232;65980;-68
2022/12/04 12:54:13;;;;;;;;;;;;;;;27.89;42.18;97898.37;609983;232;68109;-66
2022/12/04 12:56:42;;;;;;;;;;;;;;;27.91;40.62;97904.28;609896;232;65138;-65
2022/12/04 12:59:11;;;;;;;;;;;;;;;27.93;42.08;97902.06;609950;232;66154;-65
2022/12/04 13:01:42;;;;;;;;;;;;;;;27.95;41.27;97899.88;610062;232;66138;-65
2022/12/04 13:04:14;;;;;;;;;;;;;;;27.97;41.53;97905.00;610005;231;65143;-65
2022/12/04 13:06:44;;;;;;;;;;;;;;;27.97;43.12;97903.09;610029;232;68389;-65
2022/12/04 13:09:19;;;;;;;;;;;;;;;27.98;42.33;97903.89;610082;232;68136;-65
2022/12/04 13:11:48;;;;;;;;;;;;;;;28.00;40.53;97907.91;610013;232;65122;-65
2022/12/04 13:14:16;;;;;;;;;;;;;;;28.02;38.90;97910.30;610020;232;68453;-65